Time;durP1;ratioP1;P1;durP2;ratioP2;P2;SDS_P1;SDS_P2;PMS_P1;PMS_P2;Temp;Humidity;BMP_temperature;BMP_pressure;BME280_temperature;BME280_humidity;BME280_pressure;Samples;Min_cycle;Max_cycle;Signal;HPM_P1;HPM_P2
2021/10/09 00:00:57;;;;;;;14.20;10.13;;;9.90;99.90;;;;;;5097387;28;20472;-70
2021/10/09 00:03:24;;;;;;;19.47;9.03;;;9.90;99.90;;;;;;5097459;28;20471;-70
2021/10/09 00:05:50;;;;;;;15.67;10.20;;;9.90;99.90;;;;;;5097842;28;20467;-70
2021/10/09 00:08:18;;;;;;;20.63;10.20;;;9.80;99.90;;;;;;5097154;28;20487;-70
2021/10/09 00:10:45;;;;;;;19.47;9.77;;;9.80;99.90;;;;;;5096835;28;20455;-70
2021/10/09 00:13:13;;;;;;;21.30;10.13;;;9.70;99.90;;;;;;5097561;28;20470;-70
2021/10/09 00:15:41;;;;;;;16.33;10.30;;;9.70;99.90;;;;;;5098056;28;20546;-70
2021/10/09 00:18:08;;;;;;;16.10;9.80;;;9.70;99.90;;;;;;5098427;28;20465;-70
2021/10/09 00:20:35;;;;;;;18.37;10.60;;;9.60;99.90;;;;;;5097741;28;20478;-71
2021/10/09 00:23:02;;;;;;;16.27;9.33;;;9.60;99.90;;;;;;5097153;28;20496;-70
2021/10/09 00:25:29;;;;;;;13.20;9.43;;;9.60;99.90;;;;;;5097368;28;20454;-70
2021/10/09 00:27:55;;;;;;;14.83;10.03;;;9.60;99.90;;;;;;5097428;28;20457;-70
2021/10/09 00:30:22;;;;;;;14.43;9.37;;;9.60;99.90;;;;;;5096611;28;20463;-70
2021/10/09 00:32:50;;;;;;;13.03;10.23;;;9.50;99.90;;;;;;5097513;28;20470;-70
2021/10/09 00:35:17;;;;;;;16.43;9.50;;;9.50;99.90;;;;;;5097047;28;20482;-70
2021/10/09 00:37:43;;;;;;;18.27;9.10;;;9.50;99.90;;;;;;5097201;28;20459;-70
2021/10/09 00:40:11;;;;;;;13.60;9.43;;;9.50;99.90;;;;;;5096689;28;20484;-70
2021/10/09 00:42:38;;;;;;;18.07;10.90;;;9.50;99.90;;;;;;5098161;28;20930;-70
2021/10/09 00:45:06;;;;;;;17.20;10.23;;;9.50;99.90;;;;;;5098802;28;20456;-70
2021/10/09 00:47:33;;;;;;;16.23;10.00;;;9.50;99.90;;;;;;5097936;28;20546;-70
2021/10/09 00:50:02;;;;;;;17.13;8.90;;;9.50;99.90;;;;;;5098160;28;20943;-70
2021/10/09 00:52:32;;;;;;;16.70;10.47;;;9.40;99.90;;;;;;5096746;28;20466;-70
2021/10/09 00:55:02;;;;;;;18.47;10.50;;;9.40;99.90;;;;;;5096700;28;20456;-70
2021/10/09 00:57:30;;;;;;;16.17;10.67;;;9.40;99.90;;;;;;5096776;28;20457;-70
2021/10/09 00:59:59;;;;;;;18.10;9.83;;;9.40;99.90;;;;;;5095805;28;20464;-70
2021/10/09 01:02:26;;;;;;;18.90;10.27;;;9.40;99.90;;;;;;5096152;28;20485;-70
2021/10/09 01:04:56;;;;;;;16.47;10.63;;;9.40;99.90;;;;;;5095699;28;20458;-70
2021/10/09 01:07:24;;;;;;;13.13;10.07;;;9.30;99.90;;;;;;5096300;28;20458;-70
2021/10/09 01:09:51;;;;;;;15.87;10.13;;;9.30;99.90;;;;;;5096094;28;20469;-70
2021/10/09 01:12:17;;;;;;;15.30;9.60;;;9.30;99.90;;;;;;5095581;28;20472;-70
2021/10/09 01:14:44;;;;;;;18.13;9.60;;;9.30;99.90;;;;;;5095533;28;20466;-70
2021/10/09 01:17:13;;;;;;;15.60;9.70;;;9.30;99.90;;;;;;5095845;28;20797;-70
2021/10/09 01:19:40;;;;;;;25.63;11.20;;;9.20;99.90;;;;;;5095468;28;20454;-70
2021/10/09 01:22:09;;;;;;;17.60;10.17;;;9.20;99.90;;;;;;5095611;28;20591;-70
2021/10/09 01:24:36;;;;;;;19.10;10.87;;;9.20;99.90;;;;;;5095546;28;20521;-70
2021/10/09 01:27:04;;;;;;;19.43;10.50;;;9.10;99.90;;;;;;5095445;28;20458;-70
2021/10/09 01:29:31;;;;;;;14.30;9.70;;;9.10;99.90;;;;;;5094844;28;20460;-70
2021/10/09 01:31:58;;;;;;;18.37;11.03;;;9.10;99.90;;;;;;5095679;28;20818;-70
2021/10/09 01:34:27;;;;;;;17.97;10.10;;;9.10;99.90;;;;;;5095632;28;20463;-70
2021/10/09 01:36:53;;;;;;;15.17;10.00;;;9.10;99.90;;;;;;5095648;28;20784;-70
2021/10/09 01:39:21;;;;;;;16.00;10.70;;;9.00;99.90;;;;;;5095375;28;20461;-70
2021/10/09 01:41:50;;;;;;;14.90;10.33;;;9.00;99.90;;;;;;5095227;28;20842;-70
2021/10/09 01:44:18;;;;;;;17.80;10.80;;;9.00;99.90;;;;;;5095174;28;20464;-70
2021/10/09 01:46:45;;;;;;;15.67;10.27;;;9.00;99.90;;;;;;5095188;28;20469;-70
2021/10/09 01:49:12;;;;;;;19.97;11.40;;;9.00;99.90;;;;;;5094841;28;20520;-70
2021/10/09 01:51:38;;;;;;;16.70;10.50;;;9.00;99.90;;;;;;5094802;28;20936;-70
2021/10/09 01:54:08;;;;;;;18.20;11.47;;;8.90;99.90;;;;;;5095202;28;20463;-70
2021/10/09 01:56:39;;;;;;;17.40;11.20;;;8.90;99.90;;;;;;5094638;28;20953;-70
2021/10/09 01:59:08;;;;;;;16.17;11.07;;;8.90;99.90;;;;;;5094845;28;20442;-70
2021/10/09 02:01:35;;;;;;;18.23;10.37;;;8.90;99.90;;;;;;5094614;28;20572;-70
2021/10/09 02:04:02;;;;;;;22.57;11.20;;;8.90;99.90;;;;;;5095087;28;20636;-70
2021/10/09 02:06:31;;;;;;;16.83;11.13;;;8.90;99.90;;;;;;5095011;28;20458;-70
2021/10/09 02:08:58;;;;;;;19.60;10.60;;;8.80;99.90;;;;;;5094908;28;20452;-70
2021/10/09 02:11:28;;;;;;;19.13;10.93;;;8.80;99.90;;;;;;5094812;28;20514;-70
2021/10/09 02:14:02;;;;;;;21.17;10.93;;;8.80;99.90;;;;;;5094530;28;20783;-70
2021/10/09 02:25:26;;;;;;;19.23;11.60;;;8.70;99.90;;;;;;5032800;28;20838;-69
2021/10/09 02:27:54;;;;;;;23.20;11.13;;;8.70;99.90;;;;;;5032957;28;20438;-69
2021/10/09 02:30:22;;;;;;;16.70;10.03;;;8.60;99.90;;;;;;5068245;28;20455;-70
2021/10/09 02:32:48;;;;;;;15.60;10.60;;;8.60;99.90;;;;;;5094635;28;20453;-69
2021/10/09 02:35:15;;;;;;;21.53;10.60;;;8.60;99.90;;;;;;5094879;28;20466;-70
2021/10/09 02:37:42;;;;;;;19.97;11.73;;;8.60;99.90;;;;;;5094616;28;20458;-69
2021/10/09 02:40:10;;;;;;;20.70;10.93;;;8.60;99.90;;;;;;5096011;28;20809;-70
2021/10/09 02:42:36;;;;;;;19.00;11.23;;;8.60;99.90;;;;;;5098587;28;20492;-69
2021/10/09 02:45:03;;;;;;;17.43;12.30;;;8.60;99.90;;;;;;5098892;28;20791;-70
2021/10/09 02:47:31;;;;;;;20.60;11.40;;;8.60;99.90;;;;;;5098183;28;20915;-70
2021/10/09 02:49:58;;;;;;;18.47;10.77;;;8.60;99.90;;;;;;5098510;28;20471;-69
2021/10/09 02:52:25;;;;;;;17.50;10.87;;;8.60;99.90;;;;;;5098331;28;20484;-70
2021/10/09 02:54:52;;;;;;;21.90;9.80;;;8.50;99.90;;;;;;5098912;28;20663;-70
2021/10/09 02:57:18;;;;;;;20.93;12.10;;;8.50;99.90;;;;;;5098656;28;20789;-70
2021/10/09 02:59:45;;;;;;;15.13;10.40;;;8.50;99.90;;;;;;5098728;28;20467;-70
2021/10/09 03:02:12;;;;;;;15.43;11.30;;;8.40;99.90;;;;;;5098371;28;20477;-70
2021/10/09 03:04:40;;;;;;;20.97;11.50;;;8.40;99.90;;;;;;5098448;28;20460;-69
2021/10/09 03:07:07;;;;;;;16.57;10.80;;;8.40;99.90;;;;;;5098153;28;20972;-70
2021/10/09 03:09:33;;;;;;;15.87;10.70;;;8.40;99.90;;;;;;5098564;28;20772;-70
2021/10/09 03:12:00;;;;;;;20.23;11.60;;;8.30;99.90;;;;;;5098486;28;20768;-69
2021/10/09 03:14:27;;;;;;;21.30;11.27;;;8.30;99.90;;;;;;5098385;28;20466;-70
2021/10/09 03:16:55;;;;;;;27.13;12.07;;;8.30;99.90;;;;;;5098588;28;20458;-70
2021/10/09 03:19:21;;;;;;;15.77;10.17;;;8.30;99.90;;;;;;5099236;28;20457;-70
2021/10/09 03:21:52;;;;;;;15.33;11.87;;;8.20;99.90;;;;;;5104613;28;20495;-70
2021/10/09 03:24:19;;;;;;;15.77;11.27;;;8.20;99.90;;;;;;5110437;28;20494;-70
2021/10/09 03:26:45;;;;;;;19.03;11.40;;;8.20;99.90;;;;;;5109569;28;20487;-69
2021/10/09 03:29:12;;;;;;;18.47;11.27;;;8.20;99.90;;;;;;5104591;28;20458;-69
2021/10/09 03:31:39;;;;;;;19.27;11.87;;;8.20;99.90;;;;;;5104014;28;20484;-70
2021/10/09 03:34:08;;;;;;;19.23;11.17;;;8.20;99.90;;;;;;5103858;28;20468;-69
2021/10/09 03:36:35;;;;;;;17.87;11.00;;;8.20;99.90;;;;;;5103631;28;20467;-69
2021/10/09 03:39:07;;;;;;;14.10;10.37;;;8.20;99.90;;;;;;5102607;28;20805;-70
2021/10/09 03:41:35;;;;;;;17.13;10.70;;;8.10;99.90;;;;;;5102005;28;20776;-70
2021/10/09 03:44:02;;;;;;;22.10;12.43;;;8.10;99.90;;;;;;5097576;28;20460;-70
2021/10/09 03:46:31;;;;;;;19.80;10.67;;;8.10;99.90;;;;;;5097952;28;20461;-70
2021/10/09 03:49:04;;;;;;;15.20;10.97;;;8.10;99.90;;;;;;5097369;28;20457;-70
2021/10/09 03:54:16;;;;;;;20.30;11.10;;;8.10;99.90;;;;;;5097502;28;20432;-69
2021/10/09 03:56:43;;;;;;;18.17;12.87;;;8.10;99.90;;;;;;5097251;28;20468;-69
2021/10/09 03:59:10;;;;;;;20.83;11.50;;;8.00;99.90;;;;;;5097333;28;20461;-69
2021/10/09 04:01:36;;;;;;;15.90;11.27;;;8.00;99.90;;;;;;5097004;28;20564;-69
2021/10/09 04:04:03;;;;;;;19.53;11.60;;;8.00;99.90;;;;;;5097352;28;20469;-69
2021/10/09 04:06:30;;;;;;;18.23;11.60;;;8.00;99.90;;;;;;5097161;28;20790;-69
2021/10/09 04:08:57;;;;;;;16.73;11.53;;;8.00;99.90;;;;;;5097212;28;20469;-69
2021/10/09 04:11:25;;;;;;;20.40;12.23;;;8.00;99.90;;;;;;5097150;28;20460;-69
2021/10/09 04:13:51;;;;;;;21.70;11.50;;;7.90;99.90;;;;;;5097286;28;20454;-69
2021/10/09 04:16:18;;;;;;;15.47;11.47;;;7.90;99.90;;;;;;5096927;28;20468;-69
2021/10/09 04:18:45;;;;;;;21.70;12.93;;;7.90;99.90;;;;;;5096981;28;20461;-69
2021/10/09 04:21:11;;;;;;;16.07;12.20;;;7.90;99.90;;;;;;5096758;28;20577;-69
2021/10/09 04:23:38;;;;;;;24.97;11.57;;;7.90;99.90;;;;;;5096432;28;20489;-69
2021/10/09 04:26:05;;;;;;;21.60;11.83;;;7.90;99.90;;;;;;5096733;28;20549;-69
2021/10/09 04:28:34;;;;;;;16.97;11.07;;;7.90;99.90;;;;;;5096864;28;20460;-69
2021/10/09 04:31:01;;;;;;;17.17;11.63;;;7.90;99.90;;;;;;5097007;28;20556;-69
2021/10/09 04:33:30;;;;;;;22.70;12.63;;;7.80;99.90;;;;;;5096653;28;20461;-69
2021/10/09 04:35:56;;;;;;;17.63;11.30;;;7.80;99.90;;;;;;5096451;28;20515;-71
2021/10/09 04:38:23;;;;;;;18.53;11.37;;;7.80;99.90;;;;;;5096437;28;20476;-69
2021/10/09 04:40:50;;;;;;;16.20;12.53;;;7.80;99.90;;;;;;5096322;28;20461;-69
2021/10/09 04:43:16;;;;;;;20.03;10.53;;;7.70;99.90;;;;;;5096270;28;20460;-69
2021/10/09 04:45:44;;;;;;;19.13;11.40;;;7.80;99.90;;;;;;5096317;28;20465;-69
2021/10/09 04:48:11;;;;;;;18.03;11.43;;;7.70;99.90;;;;;;5096353;28;20457;-70
2021/10/09 04:50:38;;;;;;;19.23;12.03;;;7.70;99.90;;;;;;5096069;28;20457;-70
2021/10/09 04:53:04;;;;;;;19.03;12.17;;;7.70;99.90;;;;;;5096041;28;20457;-70
2021/10/09 04:55:31;;;;;;;19.87;11.17;;;7.70;99.90;;;;;;5095808;28;20461;-70
2021/10/09 04:57:58;;;;;;;18.13;12.20;;;7.70;99.90;;;;;;5095987;28;20923;-70
2021/10/09 05:00:25;;;;;;;15.83;10.43;;;7.70;99.90;;;;;;5096240;28;20471;-72
2021/10/09 05:02:53;;;;;;;17.77;11.50;;;7.70;99.90;;;;;;5095981;28;20777;-70
2021/10/09 05:05:20;;;;;;;16.07;11.60;;;7.70;99.90;;;;;;5095682;28;20458;-70
2021/10/09 05:07:46;;;;;;;15.07;12.00;;;7.70;99.90;;;;;;5096230;28;20459;-70
2021/10/09 05:10:15;;;;;;;19.47;11.37;;;7.60;99.90;;;;;;5096048;28;20461;-70
2021/10/09 05:12:41;;;;;;;18.73;11.83;;;7.60;99.90;;;;;;5096038;28;20837;-71
2021/10/09 05:15:09;;;;;;;20.20;11.97;;;7.60;99.90;;;;;;5095534;28;20464;-71
2021/10/09 05:17:35;;;;;;;17.70;11.70;;;7.60;99.90;;;;;;5095726;28;20522;-71
2021/10/09 05:20:04;;;;;;;19.87;12.23;;;7.50;99.90;;;;;;5095714;28;20464;-70
2021/10/09 05:22:31;;;;;;;16.77;10.80;;;7.50;99.90;;;;;;5095133;28;20500;-70
2021/10/09 05:24:58;;;;;;;21.17;12.93;;;7.50;99.90;;;;;;5095386;28;20465;-70
2021/10/09 05:27:27;;;;;;;17.30;12.07;;;7.50;99.90;;;;;;5095682;28;20518;-70
2021/10/09 05:29:54;;;;;;;21.00;12.87;;;7.50;99.90;;;;;;5095067;28;20975;-70
2021/10/09 05:32:26;;;;;;;22.20;13.80;;;7.50;99.90;;;;;;5095301;28;20787;-70
2021/10/09 05:34:54;;;;;;;20.43;12.23;;;7.50;99.90;;;;;;5095705;28;20537;-70
2021/10/09 05:37:22;;;;;;;25.87;13.67;;;7.50;99.90;;;;;;5095570;28;20797;-70
2021/10/09 05:39:48;;;;;;;17.53;12.20;;;7.50;99.90;;;;;;5095474;28;20517;-70
2021/10/09 05:42:15;;;;;;;19.33;13.10;;;7.50;99.90;;;;;;5095448;28;20484;-70
2021/10/09 05:44:42;;;;;;;19.67;13.23;;;7.50;99.90;;;;;;5095685;28;20510;-70
2021/10/09 05:47:08;;;;;;;22.70;13.90;;;7.50;99.90;;;;;;5095052;28;20794;-70
2021/10/09 05:49:37;;;;;;;18.67;13.07;;;7.50;99.90;;;;;;5095095;28;20456;-70
2021/10/09 05:52:08;;;;;;;22.17;12.87;;;7.50;99.90;;;;;;5095531;28;20493;-71
2021/10/09 05:54:40;;;;;;;18.20;13.70;;;7.50;99.90;;;;;;5095210;28;20578;-70
2021/10/09 05:57:13;;;;;;;19.33;12.30;;;7.50;99.90;;;;;;5095340;28;20451;-70
2021/10/09 06:42:03;;;;;;;17.67;11.47;;;7.90;99.90;;;;;;5094129;28;20440;-71
2021/10/09 06:44:30;;;;;;;17.67;10.63;;;7.90;99.90;;;;;;5094620;28;20448;-71
2021/10/09 06:47:09;;;;;;;20.30;11.50;;;8.00;99.90;;;;;;5094605;28;20480;-70
2021/10/09 07:00:42;;;;;;;18.10;11.77;;;8.20;99.90;;;;;;5094263;28;20433;-70
2021/10/09 07:03:09;;;;;;;17.10;11.47;;;8.30;99.90;;;;;;5094270;28;20493;-70
2021/10/09 07:05:41;;;;;;;17.93;11.60;;;8.30;99.90;;;;;;5093886;28;20461;-70
2021/10/09 07:08:09;;;;;;;19.60;10.70;;;8.40;99.90;;;;;;5094211;28;20438;-70
2021/10/09 07:10:37;;;;;;;16.27;11.20;;;8.40;99.90;;;;;;5094265;28;20841;-70
2021/10/09 07:13:04;;;;;;;15.73;10.60;;;8.50;99.90;;;;;;5093879;28;20639;-70
2021/10/09 07:15:30;;;;;;;21.70;11.03;;;8.50;99.90;;;;;;5094160;28;20458;-70
2021/10/09 07:17:58;;;;;;;16.27;10.40;;;8.60;99.90;;;;;;5094387;28;20461;-71
2021/10/09 07:20:26;;;;;;;19.47;11.07;;;8.60;99.90;;;;;;5094339;28;20526;-71
2021/10/09 07:22:52;;;;;;;14.90;10.30;;;8.70;99.90;;;;;;5093923;28;20500;-70
2021/10/09 07:25:19;;;;;;;20.03;10.93;;;8.70;99.90;;;;;;5094313;28;20468;-71
2021/10/09 07:27:46;;;;;;;16.70;10.17;;;8.80;99.90;;;;;;5095979;28;20461;-71
2021/10/09 07:30:14;;;;;;;19.10;10.83;;;8.80;99.90;;;;;;5097552;28;20489;-71
2021/10/09 07:32:42;;;;;;;18.43;11.27;;;8.90;99.90;;;;;;5097980;28;20461;-71
2021/10/09 07:35:10;;;;;;;15.73;10.83;;;9.00;99.90;;;;;;5097401;28;20752;-71
2021/10/09 07:37:37;;;;;;;13.67;10.17;;;9.00;99.90;;;;;;5097010;28;20919;-71
2021/10/09 07:40:05;;;;;;;19.10;10.53;;;9.10;99.90;;;;;;5097788;28;20457;-71
2021/10/09 07:42:31;;;;;;;15.70;9.80;;;9.10;99.90;;;;;;5097540;28;20482;-71
2021/10/09 07:44:58;;;;;;;18.77;10.90;;;9.20;99.90;;;;;;5097241;28;20469;-71
2021/10/09 07:47:25;;;;;;;16.33;9.87;;;9.30;99.90;;;;;;5097385;28;20500;-71
2021/10/09 07:49:52;;;;;;;15.43;10.03;;;9.30;99.90;;;;;;5097962;28;20458;-71
2021/10/09 07:52:20;;;;;;;15.43;10.57;;;9.40;99.90;;;;;;5097662;28;20450;-71
2021/10/09 07:54:46;;;;;;;16.00;9.80;;;9.40;99.90;;;;;;5097136;28;20896;-71
2021/10/09 07:57:13;;;;;;;16.30;10.63;;;9.60;99.90;;;;;;5097285;28;20459;-70
2021/10/09 07:59:40;;;;;;;17.63;10.30;;;9.60;99.90;;;;;;5097447;28;20520;-70
2021/10/09 08:02:06;;;;;;;16.00;10.20;;;9.70;99.90;;;;;;5097092;28;20477;-71
2021/10/09 08:04:33;;;;;;;14.23;9.50;;;9.80;99.90;;;;;;5096836;28;20463;-70
2021/10/09 08:07:00;;;;;;;14.73;10.00;;;9.90;99.90;;;;;;5096988;28;20455;-71
2021/10/09 08:09:31;;;;;;;14.97;9.80;;;9.90;99.90;;;;;;5096773;28;20459;-70
2021/10/09 08:11:58;;;;;;;16.37;8.70;;;10.00;99.90;;;;;;5096872;28;20513;-71
2021/10/09 08:14:25;;;;;;;14.10;9.00;;;10.10;99.90;;;;;;5096580;28;20461;-71
2021/10/09 08:16:52;;;;;;;13.00;9.50;;;10.20;99.90;;;;;;5096995;28;20453;-70
2021/10/09 08:19:18;;;;;;;12.67;8.33;;;10.20;99.90;;;;;;5096785;28;20800;-71
2021/10/09 08:21:45;;;;;;;14.37;8.40;;;10.30;99.90;;;;;;5096367;28;20463;-71
2021/10/09 08:24:22;;;;;;;16.27;9.50;;;10.40;99.90;;;;;;5096291;28;20470;-71
2021/10/09 08:40:30;;;;;;;11.37;7.50;;;11.00;99.90;;;;;;5096714;28;20456;-71
2021/10/09 08:42:58;;;;;;;14.40;8.50;;;11.10;99.90;;;;;;5096173;28;20478;-71
2021/10/09 08:45:25;;;;;;;14.80;8.90;;;11.10;99.90;;;;;;5096667;28;20446;-70
2021/10/09 08:47:52;;;;;;;10.80;7.23;;;11.30;99.90;;;;;;5096473;28;20456;-71
2021/10/09 08:50:19;;;;;;;10.00;7.20;;;11.40;99.90;;;;;;5095818;28;20489;-71
2021/10/09 08:53:00;;;;;;;13.50;7.93;;;11.50;99.90;;;;;;5096150;28;20460;-70
2021/10/09 08:55:28;;;;;;;14.77;7.23;;;11.60;99.90;;;;;;5095815;28;20836;-70
2021/10/09 08:58:02;;;;;;;12.53;7.90;;;11.60;99.90;;;;;;5095979;28;20784;-70
2021/10/09 09:00:58;;;;;;;10.07;6.50;;;11.70;99.90;;;;;;5096352;28;20440;-70
2021/10/09 09:03:37;;;;;;;18.67;8.37;;;11.80;99.90;;;;;;5095466;28;20462;-70
2021/10/09 09:06:14;;;;;;;20.00;7.53;;;11.90;99.90;;;;;;5095569;28;20477;-71
2021/10/09 09:09:12;;;;;;;10.13;6.90;;;12.00;99.90;;;;;;5095733;28;20849;-69
2021/10/09 09:26:07;;;;;;;10.27;6.83;;;12.50;99.90;;;;;;5048249;28;20480;-71
2021/10/09 09:34:18;;;;;;;10.23;6.73;;;12.80;99.90;;;;;;5095141;28;20510;-70
2021/10/09 09:39:39;;;;;;;8.47;5.83;;;13.00;99.90;;;;;;5091287;28;20441;-69
2021/10/09 09:42:08;;;;;;;8.90;6.70;;;13.10;99.90;;;;;;5095385;28;20533;-70
2021/10/09 09:44:35;;;;;;;9.90;5.67;;;13.20;99.90;;;;;;5095183;28;20457;-71
2021/10/09 09:47:05;;;;;;;11.97;6.47;;;13.30;99.90;;;;;;5095555;28;20461;-71
2021/10/09 09:49:32;;;;;;;9.13;6.50;;;13.40;99.90;;;;;;5094749;28;20496;-70
2021/10/09 09:51:59;;;;;;;9.97;6.50;;;13.50;99.90;;;;;;5094782;28;20456;-71
2021/10/09 09:54:28;;;;;;;9.67;5.90;;;13.50;99.90;;;;;;5095079;28;20452;-70
2021/10/09 09:57:00;;;;;;;10.40;6.70;;;13.60;99.90;;;;;;5095001;28;20454;-71
2021/10/09 09:59:31;;;;;;;10.07;7.10;;;13.70;99.90;;;;;;5095933;28;20794;-71
2021/10/09 10:02:01;;;;;;;7.63;6.17;;;13.80;99.90;;;;;;5095715;28;20477;-71
2021/10/09 10:04:30;;;;;;;8.63;5.70;;;13.90;99.90;;;;;;5094966;28;20970;-71
2021/10/09 10:06:59;;;;;;;12.13;6.97;;;14.00;99.90;;;;;;5094811;28;20804;-71
2021/10/09 10:09:28;;;;;;;8.13;5.67;;;14.00;99.90;;;;;;5094545;28;20766;-71
2021/10/09 10:11:57;;;;;;;8.93;5.40;;;14.00;99.90;;;;;;5095597;28;20457;-69
2021/10/09 10:14:28;;;;;;;6.93;5.17;;;14.10;99.90;;;;;;5095605;28;20445;-71
2021/10/09 10:16:55;;;;;;;6.07;4.70;;;14.20;99.90;;;;;;5096108;28;20545;-71
2021/10/09 10:20:00;;;;;;;6.63;4.60;;;14.20;99.90;;;;;;5095018;28;20466;-71
2021/10/09 10:22:58;;;;;;;6.23;4.60;;;14.40;99.90;;;;;;5094853;28;20485;-71
2021/10/09 10:25:31;;;;;;;6.50;4.70;;;14.50;99.90;;;;;;5094819;28;20549;-71
2021/10/09 10:27:59;;;;;;;8.03;5.37;;;14.50;99.90;;;;;;5094746;28;20466;-70
2021/10/09 10:30:31;;;;;;;9.93;5.00;;;14.60;99.90;;;;;;5094626;28;20492;-70
2021/10/09 10:33:44;;;;;;;7.33;4.60;;;14.70;99.90;;;;;;5094465;28;20449;-70
2021/10/09 10:36:34;;;;;;;9.10;5.33;;;14.70;99.90;;;;;;5094300;28;20441;-70
2021/10/09 10:39:00;;;;;;;8.53;5.20;;;14.80;99.90;;;;;;5094493;28;20484;-70
2021/10/09 10:41:51;;;;;;;5.90;4.90;;;14.90;99.90;;;;;;5094116;28;20462;-70
2021/10/09 10:44:52;;;;;;;4.90;3.90;;;15.00;99.90;;;;;;5094361;28;20462;-70
2021/10/09 10:47:43;;;;;;;6.03;4.40;;;15.10;99.90;;;;;;5094484;28;20473;-70
2021/10/09 10:51:02;;;;;;;5.40;4.50;;;15.10;99.90;;;;;;5094583;28;20556;-70
2021/10/09 10:54:13;;;;;;;6.57;5.10;;;15.20;99.90;;;;;;5072694;28;20450;-70
2021/10/09 10:57:13;;;;;;;6.40;5.00;;;15.30;99.90;;;;;;5093871;28;20446;-70
2021/10/09 10:59:45;;;;;;;7.10;4.90;;;15.30;99.90;;;;;;5094353;28;20461;-70
2021/10/09 11:02:14;;;;;;;9.17;5.00;;;15.40;99.90;;;;;;5095550;28;20498;-70
2021/10/09 11:04:42;;;;;;;7.03;5.20;;;15.40;99.90;;;;;;5098096;28;20496;-70
2021/10/09 11:07:09;;;;;;;9.17;5.67;;;15.50;99.90;;;;;;5098188;28;20462;-71
2021/10/09 11:09:38;;;;;;;7.93;5.00;;;15.60;99.90;;;;;;5097861;28;20464;-70
2021/10/09 11:12:18;;;;;;;6.43;5.23;;;15.70;99.90;;;;;;5098444;28;20515;-70
2021/10/09 11:14:46;;;;;;;5.63;5.00;;;15.80;99.90;;;;;;5098136;28;20437;-70
2021/10/09 11:17:12;;;;;;;9.30;4.73;;;15.80;99.90;;;;;;5098137;28;20458;-70
2021/10/09 11:19:45;;;;;;;5.07;4.53;;;15.80;99.90;;;;;;5098150;28;20754;-71
2021/10/09 11:22:12;;;;;;;5.00;4.20;;;15.90;99.90;;;;;;5098209;28;20885;-70
2021/10/09 11:24:47;;;;;;;6.77;5.20;;;16.00;99.90;;;;;;5097697;28;20473;-70
2021/10/09 11:27:15;;;;;;;7.67;5.07;;;16.10;99.90;;;;;;5097672;28;20452;-70
2021/10/09 11:29:43;;;;;;;11.13;5.73;;;16.10;99.90;;;;;;5097426;28;20457;-70
2021/10/09 11:32:11;;;;;;;5.90;4.60;;;16.20;99.90;;;;;;5097726;28;20464;-69
2021/10/09 11:34:49;;;;;;;8.63;5.60;;;16.30;99.90;;;;;;5097410;28;20553;-70
2021/10/09 11:37:17;;;;;;;7.43;5.50;;;16.40;99.90;;;;;;5097574;28;20582;-70
2021/10/09 11:39:48;;;;;;;8.00;5.53;;;16.60;99.90;;;;;;5097886;28;20485;-69
2021/10/09 11:42:18;;;;;;;7.30;4.60;;;16.70;99.90;;;;;;5097647;28;20454;-70
2021/10/09 11:44:59;;;;;;;6.33;5.13;;;16.90;99.90;;;;;;5097072;28;20492;-70
2021/10/09 11:53:28;;;;;;;7.10;5.13;;;17.20;99.90;;;;;;5097134;28;20452;-69
2021/10/09 11:55:59;;;;;;;6.10;4.50;;;19.40;99.90;;;;;;5097048;28;20425;-69
2021/10/09 11:58:26;;;;;;;10.80;4.40;;;20.90;99.20;;;;;;5096786;28;20473;-70
2021/10/09 12:00:52;;;;;;;6.17;4.70;;;22.30;93.90;;;;;;5097163;28;20787;-70
2021/10/09 12:03:33;;;;;;;8.47;4.10;;;23.70;89.20;;;;;;5096661;28;20973;-70
2021/10/09 12:06:03;;;;;;;6.43;4.33;;;25.10;81.20;;;;;;5096637;28;20452;-70
2021/10/09 12:08:32;;;;;;;6.60;4.00;;;26.00;68.30;;;;;;5097372;28;20489;-70
2021/10/09 12:11:10;;;;;;;3.90;3.47;;;26.90;63.20;;;;;;5097083;28;20509;-70
2021/10/09 12:13:48;;;;;;;3.63;3.30;;;27.90;56.70;;;;;;5095722;28;20879;-70
2021/10/09 12:16:15;;;;;;;4.07;3.30;;;28.80;51.00;;;;;;5097102;28;20806;-70
2021/10/09 12:18:47;;;;;;;3.63;3.33;;;29.60;48.10;;;;;;5096820;28;20554;-70
2021/10/09 12:21:14;;;;;;;4.60;4.10;;;30.20;45.80;;;;;;5097220;28;20472;-70
2021/10/09 12:23:41;;;;;;;5.00;4.10;;;30.70;42.40;;;;;;5096762;28;20588;-70
2021/10/09 12:26:16;;;;;;;5.43;3.93;;;30.90;40.50;;;;;;5096614;28;20504;-70
2021/10/09 12:29:05;;;;;;;4.83;3.90;;;31.20;39.50;;;;;;5096811;28;20453;-70
2021/10/09 12:31:35;;;;;;;4.07;3.67;;;31.50;37.40;;;;;;5096868;28;20461;-70
2021/10/09 12:34:03;;;;;;;4.20;3.80;;;31.70;37.10;;;;;;5097295;28;20812;-70
2021/10/09 12:36:35;;;;;;;4.50;3.80;;;32.00;35.40;;;;;;5096386;28;20469;-70
2021/10/09 12:39:25;;;;;;;4.07;3.20;;;32.30;35.40;;;;;;5096607;28;20438;-70
2021/10/09 12:41:53;;;;;;;5.80;4.13;;;32.80;34.40;;;;;;5096437;28;20442;-69
2021/10/09 12:44:23;;;;;;;4.60;3.53;;;33.00;32.40;;;;;;5096096;28;20489;-68
2021/10/09 12:46:50;;;;;;;3.60;3.17;;;33.10;31.60;;;;;;5096419;28;20484;-69
2021/10/09 12:49:18;;;;;;;6.27;3.37;;;33.20;30.90;;;;;;5096649;28;20457;-69
2021/10/09 12:51:45;;;;;;;3.97;2.90;;;33.20;29.90;;;;;;5099788;28;20466;-69
2021/10/09 12:54:16;;;;;;;3.73;3.43;;;33.00;30.00;;;;;;5101438;28;20510;-69
2021/10/09 12:56:42;;;;;;;3.47;3.17;;;32.90;30.00;;;;;;5102200;28;20509;-69
2021/10/09 12:59:09;;;;;;;7.20;4.10;;;33.00;29.90;;;;;;5100709;28;20468;-69
2021/10/09 13:01:36;;;;;;;5.80;3.77;;;32.90;30.20;;;;;;5101179;28;20450;-69
2021/10/09 13:04:03;;;;;;;5.90;5.10;;;33.00;30.50;;;;;;5100472;28;20478;-69
2021/10/09 13:06:31;;;;;;;5.43;4.97;;;33.00;30.40;;;;;;5101079;28;20457;-69
2021/10/09 13:08:58;;;;;;;8.90;4.63;;;33.10;31.40;;;;;;5097794;28;20462;-69
2021/10/09 13:11:26;;;;;;;5.37;4.40;;;33.20;31.10;;;;;;5095289;28;20457;-69
2021/10/09 13:13:55;;;;;;;7.83;5.23;;;33.30;30.80;;;;;;5095622;28;20470;-69
2021/10/09 13:16:21;;;;;;;4.93;4.33;;;33.10;30.20;;;;;;5095479;28;20472;-69
2021/10/09 13:18:48;;;;;;;7.03;4.20;;;33.00;31.20;;;;;;5095748;28;20450;-68
2021/10/09 13:21:15;;;;;;;7.93;4.60;;;33.20;31.10;;;;;;5094454;28;20804;-69
2021/10/09 13:23:43;;;;;;;7.67;4.73;;;33.30;30.30;;;;;;5094741;28;20524;-68
2021/10/09 13:26:10;;;;;;;4.83;4.33;;;33.40;30.70;;;;;;5094892;28;20449;-70
2021/10/09 13:28:37;;;;;;;5.70;4.20;;;33.60;30.80;;;;;;5095447;28;20550;-70
2021/10/09 13:31:05;;;;;;;6.07;3.80;;;33.90;30.80;;;;;;5095126;28;20485;-69
2021/10/09 13:33:33;;;;;;;5.03;4.00;;;34.00;29.80;;;;;;5095302;28;20448;-70
2021/10/09 13:35:59;;;;;;;4.60;4.00;;;34.10;29.60;;;;;;5094933;28;20462;-70
2021/10/09 13:38:30;;;;;;;4.30;3.90;;;34.30;28.90;;;;;;5095394;28;20793;-70
2021/10/09 13:40:58;;;;;;;3.80;3.50;;;34.30;28.50;;;;;;5094996;28;20442;-70
2021/10/09 13:43:25;;;;;;;4.30;3.90;;;34.30;28.10;;;;;;5094532;28;20549;-70
2021/10/09 13:45:52;;;;;;;4.30;3.90;;;34.40;28.20;;;;;;5095309;28;20454;-70
2021/10/09 13:48:19;;;;;;;4.37;3.93;;;34.40;27.50;;;;;;5096453;28;20445;-70
2021/10/09 13:50:48;;;;;;;4.13;3.83;;;34.30;28.00;;;;;;5099959;28;20446;-70
2021/10/09 13:53:15;;;;;;;3.60;3.23;;;34.50;28.10;;;;;;5099683;28;20542;-70
2021/10/09 13:55:42;;;;;;;4.47;3.90;;;34.70;27.80;;;;;;5100144;28;20446;-70
2021/10/09 13:58:11;;;;;;;3.83;3.43;;;34.90;27.40;;;;;;5100470;28;20528;-70
2021/10/09 14:00:39;;;;;;;6.80;4.00;;;34.90;27.10;;;;;;5100161;28;20512;-70
2021/10/09 14:03:06;;;;;;;4.00;3.70;;;35.00;27.20;;;;;;5099453;28;20464;-69
2021/10/09 14:05:33;;;;;;;3.73;3.40;;;35.00;26.70;;;;;;5100514;28;20481;-69
2021/10/09 14:07:59;;;;;;;3.50;3.20;;;34.90;26.90;;;;;;5107227;28;20454;-69
2021/10/09 14:10:26;;;;;;;4.13;3.20;;;34.80;26.70;;;;;;5105877;28;20462;-69
2021/10/09 14:12:54;;;;;;;3.33;3.03;;;34.50;26.90;;;;;;5100529;28;20458;-69
2021/10/09 14:15:22;;;;;;;4.30;3.00;;;34.30;26.70;;;;;;5099892;28;20789;-69
2021/10/09 14:17:49;;;;;;;8.37;3.10;;;34.10;27.30;;;;;;5094863;28;20458;-69
2021/10/09 14:20:16;;;;;;;3.37;3.07;;;34.00;26.90;;;;;;5094481;28;20458;-69
2021/10/09 14:22:43;;;;;;;4.17;3.20;;;33.70;27.10;;;;;;5094279;28;20529;-69
2021/10/09 14:25:12;;;;;;;3.40;3.10;;;33.50;27.30;;;;;;5094374;28;20485;-69
2021/10/09 14:27:39;;;;;;;5.53;3.70;;;33.60;27.10;;;;;;5094665;28;20458;-69
2021/10/09 14:30:08;;;;;;;3.70;3.40;;;33.80;27.10;;;;;;5094848;28;20454;-69
2021/10/09 14:32:36;;;;;;;7.80;3.70;;;33.80;27.20;;;;;;5094516;28;20457;-69
2021/10/09 14:35:04;;;;;;;4.13;3.73;;;33.90;27.20;;;;;;5094934;28;20461;-69
2021/10/09 14:37:31;;;;;;;4.00;3.60;;;33.70;26.80;;;;;;5098115;28;20457;-68
2021/10/09 14:39:58;;;;;;;4.07;3.43;;;33.60;27.00;;;;;;5098646;28;20489;-68